createdAt,value
2018-11-25T00:01:49.526Z,76.92
2018-11-25T00:03:58.549Z,90.00
2018-11-25T00:06:07.712Z,73.50
2018-11-25T00:08:16.768Z,96.30
2018-11-25T00:10:25.984Z,75.95
2018-11-25T00:12:35.341Z,104.10
2018-11-25T00:14:44.621Z,90.50
2018-11-25T00:16:53.737Z,97.57
2018-11-25T00:19:02.866Z,102.12
2018-11-25T00:21:12.006Z,96.28
2018-11-25T00:23:21.142Z,109.90
2018-11-25T00:25:30.248Z,91.30
2018-11-25T00:27:39.414Z,111.83
2018-11-25T00:29:48.686Z,91.42
2018-11-25T00:31:57.917Z,100.92
2018-11-25T00:34:07.061Z,80.67
2018-11-25T00:36:16.132Z,89.03
2018-11-25T00:38:25.361Z,93.58
2018-11-25T00:40:34.423Z,112.45
2018-11-25T00:42:44.359Z,84.90
2018-11-25T00:44:53.505Z,87.70
2018-11-25T00:47:02.654Z,135.00
2018-11-25T00:49:11.798Z,92.75
2018-11-25T00:51:20.897Z,73.47
2018-11-25T00:53:30.226Z,100.37
2018-11-25T00:55:39.339Z,102.87
2018-11-25T00:57:48.505Z,143.45
2018-11-25T00:59:57.564Z,111.77
2018-11-25T01:02:06.748Z,89.85
2018-11-25T01:04:16.096Z,89.15
2018-11-25T01:06:25.204Z,83.70
2018-11-25T01:08:34.301Z,92.02
2018-11-25T01:10:43.680Z,85.20
2018-11-25T01:12:53.009Z,86.87
2018-11-25T01:15:02.132Z,77.90
2018-11-25T01:17:11.642Z,94.17
2018-11-25T01:19:20.562Z,84.87
2018-11-25T01:21:29.666Z,88.50
2018-11-25T01:23:38.814Z,80.85
2018-11-25T01:25:47.846Z,68.87
2018-11-25T01:27:57.142Z,84.67
2018-11-25T01:30:13.217Z,85.55
2018-11-25T01:32:22.482Z,84.45
2018-11-25T01:34:31.526Z,86.20
2018-11-25T01:36:40.635Z,86.75
2018-11-25T01:38:49.817Z,93.33
2018-11-25T01:40:58.828Z,71.85
2018-11-25T01:43:07.851Z,69.40
2018-11-25T01:45:17.960Z,85.60
2018-11-25T01:47:27.195Z,74.25
2018-11-25T01:49:36.198Z,77.00
2018-11-25T01:51:45.420Z,79.13
2018-11-25T01:53:54.909Z,94.67
2018-11-25T01:56:04.028Z,86.55
2018-11-25T01:58:13.090Z,79.83
2018-11-25T02:00:22.277Z,74.58
2018-11-25T02:02:31.493Z,80.50
2018-11-25T02:04:40.588Z,82.37
2018-11-25T02:06:49.602Z,77.13
2018-11-25T02:08:58.693Z,81.70
2018-11-25T02:11:08.048Z,81.78
2018-11-25T02:13:17.105Z,94.13
2018-11-25T02:15:26.198Z,89.10
2018-11-25T02:17:35.257Z,68.25
2018-11-25T02:19:44.405Z,79.53
2018-11-25T02:21:53.453Z,87.62
2018-11-25T02:24:02.563Z,77.53
2018-11-25T02:26:11.652Z,73.00
2018-11-25T02:28:20.713Z,70.15
2018-11-25T02:30:29.936Z,79.15
2018-11-25T02:32:39.090Z,82.20
2018-11-25T02:34:48.142Z,74.15
2018-11-25T02:36:57.377Z,76.50
2018-11-25T02:39:08.468Z,79.17
2018-11-25T02:41:17.618Z,87.05
2018-11-25T02:43:26.779Z,90.90
2018-11-25T02:45:35.866Z,83.00
2018-11-25T02:47:44.996Z,83.47
2018-11-25T02:49:54.073Z,83.37
2018-11-25T02:52:03.222Z,81.70
2018-11-25T02:54:12.318Z,74.22
2018-11-25T02:56:21.356Z,83.30
2018-11-25T02:58:30.326Z,74.82
2018-11-25T03:00:39.539Z,75.05
2018-11-25T03:02:48.531Z,69.72
2018-11-25T03:04:57.569Z,83.00
2018-11-25T03:07:07.158Z,77.65
2018-11-25T03:09:16.184Z,74.45
2018-11-25T03:11:25.384Z,64.35
2018-11-25T03:13:34.477Z,77.15
2018-11-25T03:15:43.566Z,72.20
2018-11-25T03:17:52.531Z,75.23
2018-11-25T03:20:01.631Z,76.22
2018-11-25T03:22:10.710Z,83.12
2018-11-25T03:24:19.833Z,80.67
2018-11-25T03:26:28.989Z,81.08
2018-11-25T03:28:38.189Z,77.55
2018-11-25T03:30:47.186Z,76.65
2018-11-25T03:32:56.465Z,77.25
2018-11-25T03:35:06.092Z,79.70
2018-11-25T03:37:15.014Z,66.15
2018-11-25T03:39:24.213Z,75.37
2018-11-25T03:41:33.309Z,74.85
2018-11-25T03:43:42.419Z,63.60
2018-11-25T03:45:51.382Z,63.13
2018-11-25T03:48:00.560Z,67.77
2018-11-25T03:50:10.934Z,63.52
2018-11-25T03:52:20.097Z,73.17
2018-11-25T03:54:29.181Z,59.63
2018-11-25T03:56:38.730Z,70.03
2018-11-25T03:58:47.916Z,71.72
2018-11-25T04:00:57.012Z,75.97
2018-11-25T04:03:06.415Z,67.70
2018-11-25T04:05:16.479Z,66.92
2018-11-25T04:07:25.676Z,68.57
2018-11-25T04:09:34.694Z,63.90
2018-11-25T04:11:44.099Z,69.77
2018-11-25T04:13:53.185Z,59.42
2018-11-25T04:16:02.351Z,70.07
2018-11-25T04:18:11.488Z,70.17
2018-11-25T04:20:20.862Z,65.87
2018-11-25T04:22:30.062Z,71.02
2018-11-25T04:24:39.044Z,65.10
2018-11-25T04:26:48.217Z,68.37
2018-11-25T04:28:57.400Z,64.77
2018-11-25T04:31:06.652Z,63.00
2018-11-25T04:33:15.742Z,63.90
2018-11-25T04:35:24.837Z,57.90
2018-11-25T04:37:34.238Z,62.53
2018-11-25T04:39:43.298Z,63.27
2018-11-25T04:41:52.381Z,56.47
2018-11-25T04:44:01.816Z,63.73
2018-11-25T04:46:11.000Z,60.73
2018-11-25T04:48:20.190Z,62.47
2018-11-25T04:50:29.138Z,59.73
2018-11-25T04:52:38.306Z,69.50
2018-11-25T04:54:47.360Z,64.42
2018-11-25T04:56:56.737Z,56.58
2018-11-25T04:59:06.067Z,65.07
2018-11-25T05:01:15.052Z,50.58
2018-11-25T05:03:24.112Z,52.70
2018-11-25T05:05:33.058Z,62.50
2018-11-25T05:07:42.042Z,66.40
2018-11-25T05:09:51.169Z,52.87
2018-11-25T05:12:00.446Z,58.40
2018-11-25T05:14:09.527Z,54.50
2018-11-25T05:16:18.640Z,57.73
2018-11-25T05:18:27.799Z,56.60
2018-11-25T05:20:36.891Z,61.97
2018-11-25T05:22:46.135Z,58.13
2018-11-25T05:24:55.229Z,54.88
2018-11-25T05:27:04.336Z,47.00
2018-11-25T05:29:13.742Z,56.03
2018-11-25T05:31:22.794Z,59.83
2018-11-25T05:33:31.877Z,59.58
2018-11-25T05:35:41.025Z,57.40
2018-11-25T05:37:50.080Z,59.43
2018-11-25T05:39:59.255Z,62.60
2018-11-25T05:42:08.282Z,68.47
2018-11-25T05:44:17.413Z,63.80
2018-11-25T05:46:26.533Z,54.10
2018-11-25T05:48:35.676Z,50.67
2018-11-25T05:50:44.718Z,57.60
2018-11-25T05:52:53.867Z,53.53
2018-11-25T05:55:03.258Z,57.23
2018-11-25T05:57:12.438Z,51.30
2018-11-25T05:59:21.636Z,47.08
2018-11-25T06:01:30.945Z,41.02
2018-11-25T06:03:40.094Z,59.38
2018-11-25T06:05:49.262Z,51.03
2018-11-25T06:07:59.075Z,55.00
2018-11-25T06:10:11.256Z,48.25
2018-11-25T06:12:20.227Z,57.10
2018-11-25T06:14:29.294Z,58.30
2018-11-25T06:16:38.477Z,53.23
2018-11-25T06:18:47.415Z,61.02
2018-11-25T06:20:56.452Z,46.30
2018-11-25T06:23:05.797Z,48.80
2018-11-25T06:25:20.374Z,56.80
2018-11-25T06:27:30.528Z,55.80
2018-11-25T06:29:39.027Z,52.10
2018-11-25T06:31:48.042Z,52.73
2018-11-25T06:33:57.111Z,49.67
2018-11-25T06:36:06.244Z,63.48
2018-11-25T06:38:15.674Z,52.83
2018-11-25T06:40:24.763Z,50.73
2018-11-25T06:42:33.762Z,53.10
2018-11-25T06:44:42.800Z,57.30
2018-11-25T06:46:51.981Z,53.42
2018-11-25T06:49:01.274Z,63.10
2018-11-25T06:51:10.332Z,50.60
2018-11-25T06:53:19.498Z,53.77
2018-11-25T06:55:28.603Z,57.50
2018-11-25T06:57:37.912Z,50.87
2018-11-25T06:59:47.154Z,50.43
2018-11-25T07:01:56.358Z,59.80
2018-11-25T07:04:05.573Z,50.30
2018-11-25T07:06:15.105Z,56.60
2018-11-25T07:08:24.240Z,53.10
2018-11-25T07:10:33.395Z,46.40
2018-11-25T07:12:42.801Z,49.53
2018-11-25T07:14:51.893Z,51.83
2018-11-25T07:17:01.050Z,50.15
2018-11-25T07:19:10.478Z,46.67
2018-11-25T07:21:19.800Z,44.67
2018-11-25T07:23:28.799Z,51.97
2018-11-25T07:25:38.093Z,52.08
2018-11-25T07:27:47.460Z,59.30
2018-11-25T07:29:56.589Z,63.58
2018-11-25T07:32:06.243Z,50.60
2018-11-25T07:34:15.359Z,55.20
2018-11-25T07:36:24.571Z,59.40
2018-11-25T07:38:33.672Z,59.90
2018-11-25T07:40:42.960Z,53.40
2018-11-25T07:42:52.068Z,52.10
2018-11-25T07:45:01.492Z,54.90
2018-11-25T07:47:10.683Z,54.58
2018-11-25T07:49:19.631Z,46.20
2018-11-25T07:51:28.977Z,54.27
2018-11-25T07:53:38.170Z,60.63
2018-11-25T07:55:47.296Z,48.60
2018-11-25T07:57:57.255Z,49.73
2018-11-25T08:00:10.673Z,49.58
2018-11-25T08:02:19.857Z,44.90
2018-11-25T08:04:28.971Z,49.60
2018-11-25T08:06:37.972Z,50.20
2018-11-25T08:08:47.293Z,48.98
2018-11-25T08:10:56.361Z,45.20
2018-11-25T08:13:05.630Z,48.93
2018-11-25T08:15:18.020Z,51.10
2018-11-25T08:17:27.420Z,52.17
2018-11-25T08:19:36.603Z,51.27
2018-11-25T08:21:45.901Z,60.87
2018-11-25T08:23:55.069Z,52.80
2018-11-25T08:26:04.771Z,51.07
2018-11-25T08:28:13.970Z,65.07
2018-11-25T08:30:23.826Z,50.60
2018-11-25T08:32:33.112Z,55.43
2018-11-25T08:34:42.141Z,49.43
2018-11-25T08:36:51.642Z,52.00
2018-11-25T08:39:00.661Z,49.50
2018-11-25T08:41:09.680Z,51.90
2018-11-25T08:43:18.777Z,46.77
2018-11-25T08:45:27.949Z,48.43
2018-11-25T08:47:37.106Z,48.30
2018-11-25T08:49:46.285Z,55.93
2018-11-25T08:51:55.381Z,55.07
2018-11-25T08:54:04.600Z,51.10
2018-11-25T08:56:13.829Z,49.70
2018-11-25T08:58:23.032Z,63.23
2018-11-25T09:00:32.059Z,48.17
2018-11-25T09:02:41.125Z,49.37
2018-11-25T09:04:50.660Z,47.90
2018-11-25T09:07:00.210Z,49.77
2018-11-25T09:09:09.324Z,46.53
2018-11-25T09:11:18.573Z,82.83
2018-11-25T09:13:27.630Z,113.47
2018-11-25T09:15:36.717Z,81.70
2018-11-25T09:17:45.929Z,64.53
2018-11-25T09:19:55.083Z,52.30
2018-11-25T09:22:04.414Z,53.10
2018-11-25T09:24:13.398Z,73.70
2018-11-25T09:26:22.568Z,73.60
2018-11-25T09:28:31.787Z,54.70
2018-11-25T09:30:40.801Z,57.57
2018-11-25T09:32:50.096Z,66.40
2018-11-25T09:34:59.118Z,55.57
2018-11-25T09:37:09.639Z,51.00
2018-11-25T09:39:18.885Z,52.23
2018-11-25T09:41:28.039Z,47.40
2018-11-25T09:43:37.146Z,45.80
2018-11-25T09:45:46.285Z,49.83
2018-11-25T09:47:55.312Z,43.83
2018-11-25T09:50:06.162Z,40.90
2018-11-25T09:52:15.418Z,42.00
2018-11-25T09:54:24.358Z,47.10
2018-11-25T09:56:33.625Z,38.30
2018-11-25T09:58:42.717Z,42.17
2018-11-25T10:00:51.751Z,42.33
2018-11-25T10:03:01.976Z,41.00
2018-11-25T10:05:11.032Z,41.60
2018-11-25T10:07:19.978Z,40.00
2018-11-25T10:09:29.086Z,37.63
2018-11-25T10:11:38.202Z,41.10
2018-11-25T10:13:47.212Z,39.67
2018-11-25T10:15:56.677Z,41.73
2018-11-25T10:18:05.789Z,40.77
2018-11-25T10:20:21.433Z,35.43
2018-11-25T10:22:30.612Z,40.37
2018-11-25T10:24:39.625Z,37.83
2018-11-25T10:26:48.736Z,42.17
2018-11-25T10:28:58.215Z,44.93
2018-11-25T10:31:07.303Z,41.97
2018-11-25T10:33:16.401Z,41.27
2018-11-25T10:35:25.547Z,41.90
2018-11-25T10:37:34.685Z,53.17
2018-11-25T10:39:43.771Z,141.53
2018-11-25T10:41:52.928Z,64.80
2018-11-25T10:44:02.057Z,84.73
2018-11-25T10:46:11.337Z,154.77
2018-11-25T10:48:20.484Z,133.07
2018-11-25T10:50:29.602Z,110.67
2018-11-25T10:52:38.798Z,82.63
2018-11-25T10:54:48.051Z,62.80
2018-11-25T10:56:57.074Z,52.67
2018-11-25T10:59:06.184Z,67.90
2018-11-25T11:01:21.507Z,61.97
2018-11-25T11:04:02.175Z,56.13
2018-11-25T11:06:16.941Z,50.60
2018-11-25T11:08:26.314Z,51.90
2018-11-25T11:10:35.858Z,50.50
2018-11-25T11:12:45.012Z,48.20
2018-11-25T11:14:54.135Z,55.90
2018-11-25T11:17:03.240Z,49.70
2018-11-25T11:19:12.355Z,56.83
2018-11-25T11:21:21.565Z,56.47
2018-11-25T11:23:30.568Z,50.43
2018-11-25T11:25:39.619Z,52.33
2018-11-25T11:27:48.782Z,53.90
2018-11-25T11:29:57.966Z,55.60
2018-11-25T11:32:06.950Z,53.73
2018-11-25T11:34:16.141Z,55.63
2018-11-25T11:36:25.241Z,56.77
2018-11-25T11:38:34.712Z,83.73
2018-11-25T11:40:43.716Z,109.93
2018-11-25T11:42:52.913Z,60.13
2018-11-25T11:45:02.075Z,61.50
2018-11-25T11:47:11.175Z,65.00
2018-11-25T11:49:20.321Z,58.03
2018-11-25T11:51:29.485Z,61.00
2018-11-25T11:53:38.594Z,50.93
2018-11-25T11:55:47.695Z,50.97
2018-11-25T11:57:56.919Z,58.17
2018-11-25T12:00:26.273Z,54.53
2018-11-25T12:02:35.401Z,53.77
2018-11-25T12:04:44.491Z,50.63
2018-11-25T12:06:53.471Z,55.70
2018-11-25T12:09:02.828Z,49.97
2018-11-25T12:11:12.052Z,49.33
2018-11-25T12:13:21.176Z,45.67
2018-11-25T12:15:31.275Z,47.30
2018-11-25T12:17:40.809Z,42.63
2018-11-25T12:19:49.986Z,46.30
2018-11-25T12:21:59.080Z,49.70
2018-11-25T12:24:08.219Z,46.57
2018-11-25T12:26:17.233Z,48.60
2018-11-25T12:28:26.372Z,53.07
2018-11-25T12:30:35.473Z,45.30
2018-11-25T12:32:48.500Z,48.13
2018-11-25T12:34:57.620Z,54.37
2018-11-25T12:37:06.779Z,49.33
2018-11-25T12:39:15.834Z,49.53
2018-11-25T12:41:25.042Z,45.27
2018-11-25T12:43:34.181Z,53.10
2018-11-25T12:45:43.283Z,48.50
2018-11-25T12:47:52.399Z,46.57
2018-11-25T12:50:01.810Z,55.07
2018-11-25T12:52:10.945Z,60.53
2018-11-25T12:54:20.166Z,54.00
2018-11-25T12:56:29.300Z,53.10
2018-11-25T12:58:38.424Z,51.37
2018-11-25T13:00:48.654Z,53.00
2018-11-25T13:02:57.566Z,55.10
2018-11-25T13:05:06.668Z,55.70
2018-11-25T13:07:15.774Z,57.30
2018-11-25T13:09:24.872Z,49.43
2018-11-25T13:11:33.941Z,53.13
2018-11-25T13:13:51.456Z,60.90
2018-11-25T13:16:00.448Z,70.20
2018-11-25T13:18:09.782Z,63.53
2018-11-25T13:20:18.968Z,63.83
2018-11-25T13:22:28.122Z,66.73
2018-11-25T13:24:37.055Z,60.30
2018-11-25T13:26:46.171Z,63.93
2018-11-25T13:28:55.339Z,72.07
2018-11-25T13:31:04.568Z,75.57
2018-11-25T13:33:13.669Z,63.30
2018-11-25T13:35:23.499Z,60.60
2018-11-25T13:37:32.727Z,62.30
2018-11-25T13:39:41.850Z,56.57
2018-11-25T13:41:51.290Z,57.90
2018-11-25T13:44:00.389Z,57.23
2018-11-25T13:46:09.401Z,61.80
2018-11-25T13:48:18.627Z,67.37
2018-11-25T13:50:27.914Z,65.33
2018-11-25T13:52:36.989Z,59.03
2018-11-25T13:54:46.112Z,61.00
2018-11-25T13:56:55.169Z,85.80
2018-11-25T13:59:04.491Z,69.37
2018-11-25T14:01:13.786Z,77.27
2018-11-25T14:03:31.065Z,83.30
2018-11-25T14:05:40.234Z,74.17
2018-11-25T14:07:49.251Z,71.97
2018-11-25T14:09:58.437Z,63.07
2018-11-25T14:12:07.570Z,72.83
2018-11-25T14:14:16.606Z,64.80
2018-11-25T14:16:25.740Z,64.40
2018-11-25T14:18:35.123Z,63.87
2018-11-25T14:20:44.208Z,63.40
2018-11-25T14:22:53.298Z,64.27
2018-11-25T14:25:02.661Z,62.37
2018-11-25T14:27:11.626Z,63.83
2018-11-25T14:29:20.827Z,73.57
2018-11-25T14:31:30.200Z,62.00
2018-11-25T14:33:39.271Z,69.90
2018-11-25T14:35:48.186Z,64.77
2018-11-25T14:37:57.321Z,70.50
2018-11-25T14:40:09.905Z,74.13
2018-11-25T14:42:19.043Z,72.00
2018-11-25T14:44:28.145Z,80.70
2018-11-25T14:46:37.355Z,77.50
2018-11-25T14:48:46.478Z,77.07
2018-11-25T14:50:55.560Z,75.60
2018-11-25T14:53:05.354Z,79.67
2018-11-25T14:55:15.104Z,69.60
2018-11-25T14:57:24.343Z,72.77
2018-11-25T14:59:33.362Z,65.37
2018-11-25T15:01:42.350Z,77.63
2018-11-25T15:03:53.794Z,59.83
2018-11-25T15:06:02.813Z,61.07
2018-11-25T15:08:17.356Z,83.97
2018-11-25T15:10:26.344Z,67.97
2018-11-25T15:12:35.607Z,66.00
2018-11-25T15:14:44.730Z,58.03
2018-11-25T15:16:53.906Z,72.40
2018-11-25T15:19:03.034Z,67.90
2018-11-25T15:21:13.321Z,68.40
2018-11-25T15:23:22.474Z,72.10
2018-11-25T15:25:34.395Z,71.90
2018-11-25T15:27:43.348Z,72.30
2018-11-25T15:29:52.440Z,59.50
2018-11-25T15:32:01.564Z,60.40
2018-11-25T15:34:10.629Z,69.40
2018-11-25T15:36:19.757Z,74.03
2018-11-25T15:38:28.929Z,68.70
2018-11-25T15:40:38.471Z,65.10
2018-11-25T15:42:47.647Z,73.50
2018-11-25T15:44:56.706Z,64.87
2018-11-25T15:47:08.279Z,75.80
2018-11-25T15:49:15.441Z,69.60
2018-11-25T15:51:24.644Z,68.67
2018-11-25T15:53:33.767Z,75.47
2018-11-25T15:55:44.636Z,65.03
2018-11-25T15:57:53.836Z,64.17
2018-11-25T16:00:03.023Z,73.10
2018-11-25T16:02:12.061Z,93.17
2018-11-25T16:04:21.336Z,65.97
2018-11-25T16:06:33.775Z,71.37
2018-11-25T16:08:42.907Z,74.90
2018-11-25T16:10:52.076Z,62.83
2018-11-25T16:13:01.268Z,79.33
2018-11-25T16:15:14.247Z,76.77
2018-11-25T16:17:23.247Z,74.70
2018-11-25T16:19:32.395Z,82.43
2018-11-25T16:21:41.439Z,75.97
2018-11-25T16:23:50.576Z,73.13
2018-11-25T16:26:06.995Z,73.63
2018-11-25T16:28:22.085Z,72.57
2018-11-25T16:30:31.123Z,70.70
2018-11-25T16:32:40.354Z,74.97
2018-11-25T16:34:49.805Z,70.57
2018-11-25T16:36:58.839Z,69.00
2018-11-25T16:39:09.593Z,76.43
2018-11-25T16:41:18.615Z,67.20
2018-11-25T16:43:27.750Z,75.27
2018-11-25T16:45:37.131Z,75.70
2018-11-25T16:47:46.179Z,72.80
2018-11-25T16:49:55.387Z,69.03
2018-11-25T16:52:04.762Z,85.87
2018-11-25T16:54:14.039Z,70.93
2018-11-25T16:56:23.067Z,70.53
2018-11-25T16:58:32.232Z,72.97
2018-11-25T17:00:41.357Z,70.90
2018-11-25T17:02:50.439Z,63.83
2018-11-25T17:04:59.461Z,79.80
2018-11-25T17:07:08.592Z,73.73
2018-11-25T17:09:17.583Z,72.40
2018-11-25T17:11:26.662Z,75.70
2018-11-25T17:13:36.160Z,85.30
2018-11-25T17:15:45.241Z,79.67
2018-11-25T17:17:54.352Z,79.23
2018-11-25T17:20:03.557Z,84.30
2018-11-25T17:22:16.560Z,80.47
2018-11-25T17:24:21.687Z,73.40
2018-11-25T17:26:30.808Z,86.13
2018-11-25T17:28:39.933Z,70.30
2018-11-25T17:30:49.137Z,71.77
2018-11-25T17:32:58.107Z,74.47
2018-11-25T17:35:14.015Z,76.83
2018-11-25T17:37:23.053Z,81.93
2018-11-25T17:39:32.195Z,77.43
2018-11-25T17:41:41.313Z,95.83
2018-11-25T17:43:50.470Z,91.87
2018-11-25T17:45:59.771Z,87.20
2018-11-25T17:48:08.756Z,84.40
2018-11-25T17:50:24.637Z,91.17
2018-11-25T17:52:33.748Z,93.07
2018-11-25T17:54:42.784Z,109.03
2018-11-25T17:56:51.872Z,103.03
2018-11-25T17:59:00.984Z,103.60
2018-11-25T18:01:10.060Z,107.83
2018-11-25T18:03:21.498Z,92.47
2018-11-25T18:05:38.482Z,122.73
2018-11-25T18:07:39.578Z,115.13
2018-11-25T18:09:48.696Z,114.50
2018-11-25T18:11:58.021Z,94.57
2018-11-25T18:14:08.180Z,107.37
2018-11-25T18:16:17.245Z,93.00
2018-11-25T18:18:48.582Z,93.90
2018-11-25T18:21:02.405Z,92.00
2018-11-25T18:23:11.397Z,87.03
2018-11-25T18:25:20.432Z,92.50
2018-11-25T18:27:23.363Z,96.60
2018-11-25T18:29:32.445Z,84.70
2018-11-25T18:31:41.520Z,92.87
2018-11-25T18:33:50.961Z,74.57
2018-11-25T18:36:00.029Z,94.80
2018-11-25T18:38:09.213Z,85.47
2018-11-25T18:40:18.344Z,89.33
2018-11-25T18:42:27.462Z,91.13
2018-11-25T18:44:36.998Z,75.10
2018-11-25T18:46:47.593Z,72.23
2018-11-25T18:48:55.132Z,82.53
2018-11-25T18:51:04.401Z,79.00
2018-11-25T18:53:13.729Z,86.07
2018-11-25T18:55:21.463Z,85.93
2018-11-25T18:57:31.053Z,83.27
2018-11-25T18:59:40.135Z,81.90
2018-11-25T19:01:57.704Z,72.17
2018-11-25T19:04:06.798Z,84.40
2018-11-25T19:06:15.986Z,78.10
2018-11-25T19:08:25.162Z,79.77
2018-11-25T19:10:34.797Z,90.23
2018-11-25T19:12:44.163Z,83.60
2018-11-25T19:14:52.414Z,89.83
2018-11-25T19:17:01.507Z,84.43
2018-11-25T19:19:10.684Z,98.53
2018-11-25T19:21:19.905Z,89.20
2018-11-25T19:23:28.980Z,88.97
2018-11-25T19:25:38.111Z,98.47
2018-11-25T19:27:47.783Z,99.30
2018-11-25T19:29:56.952Z,94.90
2018-11-25T19:32:06.612Z,77.83
2018-11-25T19:34:15.749Z,88.20
2018-11-25T19:36:24.857Z,96.03
2018-11-25T19:38:34.208Z,103.03
2018-11-25T19:40:43.633Z,101.87
2018-11-25T19:42:52.821Z,105.63
2018-11-25T19:45:01.907Z,114.37
2018-11-25T19:47:11.030Z,118.07
2018-11-25T19:49:20.007Z,113.23
2018-11-25T19:51:29.004Z,112.60
2018-11-25T19:53:38.281Z,106.87
2018-11-25T19:55:53.199Z,103.50
2018-11-25T19:58:02.485Z,97.67
2018-11-25T20:00:20.962Z,96.70
2018-11-25T20:02:30.107Z,99.77
2018-11-25T20:04:39.238Z,102.17
2018-11-25T20:06:48.353Z,101.13
2018-11-25T20:08:57.520Z,101.23
2018-11-25T20:11:06.991Z,102.00
2018-11-25T20:13:16.176Z,106.30
2018-11-25T20:15:25.226Z,114.20
2018-11-25T20:17:34.500Z,129.43
2018-11-25T20:19:43.583Z,110.07
2018-11-25T20:21:58.281Z,110.93
2018-11-25T20:24:07.565Z,99.03
2018-11-25T20:26:16.513Z,121.03
2018-11-25T20:28:25.689Z,113.93
2018-11-25T20:30:34.814Z,116.77
2018-11-25T20:32:49.730Z,110.20
2018-11-25T20:34:58.918Z,122.17
2018-11-25T20:37:07.958Z,110.30
2018-11-25T20:39:22.975Z,114.53
2018-11-25T20:41:32.126Z,120.07
2018-11-25T20:43:41.123Z,140.13
2018-11-25T20:45:56.021Z,107.37
2018-11-25T20:48:05.342Z,126.63
2018-11-25T20:50:14.672Z,126.83
2018-11-25T20:52:29.248Z,121.17
2018-11-25T20:54:38.458Z,118.67
2018-11-25T20:56:47.581Z,133.40
2018-11-25T20:58:56.655Z,122.07
2018-11-25T21:01:05.712Z,119.90
2018-11-25T21:03:14.863Z,131.97
2018-11-25T21:05:24.026Z,117.87
2018-11-25T21:07:33.261Z,96.83
2018-11-25T21:09:42.301Z,85.43
2018-11-25T21:11:51.479Z,88.40
2018-11-25T21:14:00.643Z,90.50
2018-11-25T21:16:09.819Z,90.07
2018-11-25T21:18:18.992Z,95.47
2018-11-25T21:20:28.076Z,95.33
2018-11-25T21:22:37.678Z,94.27
2018-11-25T21:24:46.948Z,84.93
2018-11-25T21:26:56.111Z,105.97
2018-11-25T21:29:05.767Z,89.43
2018-11-25T21:31:14.812Z,96.80
2018-11-25T21:33:24.011Z,90.70
2018-11-25T21:35:33.233Z,95.50
2018-11-25T21:37:42.417Z,101.07
2018-11-25T21:39:51.512Z,101.13
2018-11-25T21:42:00.687Z,107.63
2018-11-25T21:44:09.859Z,116.00
2018-11-25T21:46:18.931Z,117.73
2018-11-25T21:48:27.944Z,121.57
2018-11-25T21:50:37.047Z,113.03
2018-11-25T21:52:46.071Z,108.87
2018-11-25T21:54:55.543Z,99.57
2018-11-25T21:57:05.095Z,102.00
2018-11-25T21:59:14.229Z,106.60
2018-11-25T22:01:23.707Z,98.87
2018-11-25T22:03:33.749Z,90.83
2018-11-25T22:05:42.901Z,88.07
2018-11-25T22:07:51.977Z,78.40
2018-11-25T22:10:01.164Z,86.67
2018-11-25T22:12:10.147Z,79.57
2018-11-25T22:14:20.215Z,92.97
2018-11-25T22:16:29.349Z,76.10
2018-11-25T22:18:38.406Z,77.70
2018-11-25T22:20:47.515Z,78.97
2018-11-25T22:22:56.781Z,82.30
2018-11-25T22:25:08.409Z,84.90
2018-11-25T22:27:17.549Z,70.13
2018-11-25T22:29:26.693Z,73.93
2018-11-25T22:31:36.081Z,77.63
2018-11-25T22:33:45.146Z,67.47
2018-11-25T22:35:54.131Z,78.40
2018-11-25T22:38:03.337Z,75.83
2018-11-25T22:40:13.939Z,76.63
2018-11-25T22:42:22.961Z,73.50
2018-11-25T22:44:32.056Z,71.70
2018-11-25T22:46:41.257Z,79.33
2018-11-25T22:48:50.245Z,76.60
2018-11-25T22:50:59.334Z,78.07
2018-11-25T22:53:08.468Z,79.63
2018-11-25T22:55:19.713Z,75.00
2018-11-25T22:57:28.832Z,80.17
2018-11-25T22:59:37.938Z,74.60
2018-11-25T23:01:47.160Z,78.60
2018-11-25T23:04:14.254Z,72.13
2018-11-25T23:06:40.109Z,91.13
2018-11-25T23:08:49.314Z,80.27
2018-11-25T23:10:58.448Z,77.63
2018-11-25T23:13:07.508Z,66.30
2018-11-25T23:15:16.732Z,64.97
2018-11-25T23:17:26.068Z,65.83
2018-11-25T23:19:35.097Z,64.53
2018-11-25T23:21:44.100Z,75.97
2018-11-25T23:23:53.465Z,75.53
2018-11-25T23:26:02.561Z,73.37
2018-11-25T23:28:11.577Z,83.43
2018-11-25T23:30:20.722Z,76.83
2018-11-25T23:32:29.779Z,83.75
2018-11-25T23:34:38.924Z,79.40
2018-11-25T23:36:47.978Z,93.50
2018-11-25T23:38:57.128Z,72.50
2018-11-25T23:41:06.332Z,83.83
2018-11-25T23:43:15.476Z,82.57
2018-11-25T23:45:24.757Z,79.60
2018-11-25T23:47:33.983Z,80.55
2018-11-25T23:49:43.226Z,96.63
2018-11-25T23:51:52.225Z,71.60
2018-11-25T23:54:01.411Z,84.83
2018-11-25T23:56:10.608Z,76.65
2018-11-25T23:58:19.704Z,77.80
